sensor_id;sensor_type;location;lat;lon;timestamp;P1;durP1;ratioP1;P2;durP2;ratioP2
74634;SDS011;63140;56.306;43.984;2022-12-07T00:00:55;6.72;;;4.65;;
74634;SDS011;63140;56.306;43.984;2022-12-07T00:03:30;8.70;;;5.73;;
74634;SDS011;63140;56.306;43.984;2022-12-07T00:05:59;9.63;;;3.83;;
74634;SDS011;63140;56.306;43.984;2022-12-07T00:08:26;6.90;;;4.80;;
74634;SDS011;63140;56.306;43.984;2022-12-07T00:10:52;13.85;;;7.28;;
74634;SDS011;63140;56.306;43.984;2022-12-07T00:13:18;8.90;;;5.53;;
74634;SDS011;63140;56.306;43.984;2022-12-07T00:15:44;7.80;;;5.13;;
74634;SDS011;63140;56.306;43.984;2022-12-07T00:18:10;11.50;;;5.55;;
74634;SDS011;63140;56.306;43.984;2022-12-07T00:20:36;9.33;;;6.10;;
74634;SDS011;63140;56.306;43.984;2022-12-07T00:23:01;11.20;;;5.75;;
74634;SDS011;63140;56.306;43.984;2022-12-07T00:25:27;9.32;;;6.20;;
74634;SDS011;63140;56.306;43.984;2022-12-07T00:27:53;10.40;;;5.80;;
74634;SDS011;63140;56.306;43.984;2022-12-07T00:30:21;14.13;;;4.88;;
74634;SDS011;63140;56.306;43.984;2022-12-07T00:32:48;7.78;;;5.35;;
74634;SDS011;63140;56.306;43.984;2022-12-07T00:35:14;8.05;;;5.00;;
74634;SDS011;63140;56.306;43.984;2022-12-07T00:37:40;13.13;;;6.22;;
74634;SDS011;63140;56.306;43.984;2022-12-07T00:40:06;9.63;;;5.70;;
74634;SDS011;63140;56.306;43.984;2022-12-07T00:42:33;8.27;;;5.03;;
74634;SDS011;63140;56.306;43.984;2022-12-07T00:44:59;10.15;;;5.72;;
74634;SDS011;63140;56.306;43.984;2022-12-07T00:47:24;7.47;;;4.93;;
74634;SDS011;63140;56.306;43.984;2022-12-07T00:49:50;7.35;;;4.18;;
74634;SDS011;63140;56.306;43.984;2022-12-07T00:52:16;6.60;;;4.32;;
74634;SDS011;63140;56.306;43.984;2022-12-07T00:54:42;8.40;;;5.00;;
74634;SDS011;63140;56.306;43.984;2022-12-07T00:57:08;9.15;;;5.43;;
74634;SDS011;63140;56.306;43.984;2022-12-07T00:59:33;9.68;;;5.90;;
74634;SDS011;63140;56.306;43.984;2022-12-07T01:01:59;7.60;;;4.70;;
74634;SDS011;63140;56.306;43.984;2022-12-07T01:04:25;7.68;;;5.03;;
74634;SDS011;63140;56.306;43.984;2022-12-07T01:06:51;7.82;;;5.03;;
74634;SDS011;63140;56.306;43.984;2022-12-07T01:09:17;10.00;;;5.67;;
74634;SDS011;63140;56.306;43.984;2022-12-07T01:11:43;9.73;;;5.43;;
74634;SDS011;63140;56.306;43.984;2022-12-07T01:14:09;5.63;;;5.10;;
74634;SDS011;63140;56.306;43.984;2022-12-07T01:16:34;11.48;;;5.30;;
74634;SDS011;63140;56.306;43.984;2022-12-07T01:19:00;9.60;;;5.65;;
74634;SDS011;63140;56.306;43.984;2022-12-07T01:21:28;9.25;;;5.03;;
74634;SDS011;63140;56.306;43.984;2022-12-07T01:23:57;11.80;;;5.20;;
74634;SDS011;63140;56.306;43.984;2022-12-07T01:26:24;9.77;;;5.53;;
74634;SDS011;63140;56.306;43.984;2022-12-07T01:28:51;7.03;;;4.93;;
74634;SDS011;63140;56.306;43.984;2022-12-07T01:31:19;8.85;;;5.50;;
74634;SDS011;63140;56.306;43.984;2022-12-07T01:33:50;8.50;;;6.28;;
74634;SDS011;63140;56.306;43.984;2022-12-07T01:36:26;7.43;;;4.70;;
74634;SDS011;63140;56.306;43.984;2022-12-07T01:38:54;6.68;;;4.57;;
74634;SDS011;63140;56.306;43.984;2022-12-07T01:41:23;8.55;;;5.68;;
74634;SDS011;63140;56.306;43.984;2022-12-07T01:46:56;8.38;;;5.95;;
74634;SDS011;63140;56.306;43.984;2022-12-07T01:49:31;8.27;;;5.23;;
74634;SDS011;63140;56.306;43.984;2022-12-07T01:52:01;7.43;;;4.97;;
74634;SDS011;63140;56.306;43.984;2022-12-07T01:54:28;9.98;;;5.35;;
74634;SDS011;63140;56.306;43.984;2022-12-07T01:56:54;6.95;;;4.45;;
74634;SDS011;63140;56.306;43.984;2022-12-07T01:59:24;10.82;;;5.25;;
74634;SDS011;63140;56.306;43.984;2022-12-07T02:01:51;10.77;;;4.80;;
74634;SDS011;63140;56.306;43.984;2022-12-07T02:04:19;9.52;;;4.97;;
74634;SDS011;63140;56.306;43.984;2022-12-07T02:06:48;8.27;;;4.78;;
74634;SDS011;63140;56.306;43.984;2022-12-07T02:09:14;7.05;;;4.15;;
74634;SDS011;63140;56.306;43.984;2022-12-07T02:11:40;7.35;;;4.78;;
74634;SDS011;63140;56.306;43.984;2022-12-07T02:14:07;16.73;;;5.00;;
74634;SDS011;63140;56.306;43.984;2022-12-07T02:25:35;7.50;;;4.53;;
74634;SDS011;63140;56.306;43.984;2022-12-07T02:30:42;9.65;;;4.55;;
74634;SDS011;63140;56.306;43.984;2022-12-07T02:33:14;6.97;;;4.72;;
74634;SDS011;63140;56.306;43.984;2022-12-07T02:36:09;7.18;;;4.80;;
74634;SDS011;63140;56.306;43.984;2022-12-07T02:38:56;8.95;;;5.28;;
74634;SDS011;63140;56.306;43.984;2022-12-07T02:41:33;9.20;;;4.73;;
74634;SDS011;63140;56.306;43.984;2022-12-07T02:44:04;10.10;;;4.75;;
74634;SDS011;63140;56.306;43.984;2022-12-07T02:46:38;6.68;;;4.72;;
74634;SDS011;63140;56.306;43.984;2022-12-07T02:49:07;12.07;;;4.90;;
74634;SDS011;63140;56.306;43.984;2022-12-07T02:51:34;6.68;;;3.95;;
74634;SDS011;63140;56.306;43.984;2022-12-07T02:54:09;8.43;;;4.97;;
74634;SDS011;63140;56.306;43.984;2022-12-07T02:59:17;7.95;;;5.47;;
74634;SDS011;63140;56.306;43.984;2022-12-07T03:10:14;7.82;;;5.13;;
74634;SDS011;63140;56.306;43.984;2022-12-07T03:12:53;10.10;;;5.80;;
74634;SDS011;63140;56.306;43.984;2022-12-07T03:15:39;7.73;;;5.50;;
74634;SDS011;63140;56.306;43.984;2022-12-07T03:18:24;12.98;;;5.22;;
74634;SDS011;63140;56.306;43.984;2022-12-07T03:20:53;9.50;;;5.85;;
74634;SDS011;63140;56.306;43.984;2022-12-07T03:23:22;8.65;;;5.65;;
74634;SDS011;63140;56.306;43.984;2022-12-07T03:25:52;10.15;;;6.35;;
74634;SDS011;63140;56.306;43.984;2022-12-07T03:28:24;12.13;;;5.17;;
74634;SDS011;63140;56.306;43.984;2022-12-07T03:33:36;11.43;;;6.32;;
74634;SDS011;63140;56.306;43.984;2022-12-07T03:36:13;11.40;;;5.85;;
74634;SDS011;63140;56.306;43.984;2022-12-07T03:38:55;12.15;;;5.50;;
74634;SDS011;63140;56.306;43.984;2022-12-07T03:41:35;10.40;;;5.43;;
74634;SDS011;63140;56.306;43.984;2022-12-07T03:44:03;7.68;;;5.60;;
74634;SDS011;63140;56.306;43.984;2022-12-07T03:46:35;9.93;;;6.28;;
74634;SDS011;63140;56.306;43.984;2022-12-07T03:55:16;11.03;;;5.93;;
74634;SDS011;63140;56.306;43.984;2022-12-07T03:57:59;7.32;;;4.82;;
74634;SDS011;63140;56.306;43.984;2022-12-07T04:00:28;11.77;;;6.20;;
74634;SDS011;63140;56.306;43.984;2022-12-07T04:02:55;9.77;;;5.95;;
74634;SDS011;63140;56.306;43.984;2022-12-07T04:05:22;12.15;;;7.22;;
74634;SDS011;63140;56.306;43.984;2022-12-07T04:07:49;12.10;;;6.87;;
74634;SDS011;63140;56.306;43.984;2022-12-07T04:10:15;12.07;;;5.97;;
74634;SDS011;63140;56.306;43.984;2022-12-07T04:12:41;11.30;;;6.35;;
74634;SDS011;63140;56.306;43.984;2022-12-07T04:15:07;11.98;;;6.97;;
74634;SDS011;63140;56.306;43.984;2022-12-07T04:17:33;12.43;;;6.30;;
74634;SDS011;63140;56.306;43.984;2022-12-07T04:19:59;11.97;;;6.80;;
74634;SDS011;63140;56.306;43.984;2022-12-07T04:22:25;9.55;;;5.68;;
74634;SDS011;63140;56.306;43.984;2022-12-07T04:24:51;11.95;;;6.88;;
74634;SDS011;63140;56.306;43.984;2022-12-07T04:27:20;12.27;;;5.40;;
74634;SDS011;63140;56.306;43.984;2022-12-07T04:29:45;11.43;;;6.45;;
74634;SDS011;63140;56.306;43.984;2022-12-07T04:32:11;11.98;;;7.07;;
74634;SDS011;63140;56.306;43.984;2022-12-07T04:34:38;11.23;;;6.25;;
74634;SDS011;63140;56.306;43.984;2022-12-07T04:37:04;11.20;;;6.40;;
74634;SDS011;63140;56.306;43.984;2022-12-07T04:39:30;6.60;;;4.97;;
74634;SDS011;63140;56.306;43.984;2022-12-07T04:41:58;11.80;;;6.88;;
74634;SDS011;63140;56.306;43.984;2022-12-07T04:44:25;14.23;;;6.65;;
74634;SDS011;63140;56.306;43.984;2022-12-07T04:46:52;11.65;;;6.45;;
74634;SDS011;63140;56.306;43.984;2022-12-07T04:49:19;10.70;;;6.57;;
74634;SDS011;63140;56.306;43.984;2022-12-07T04:51:45;14.90;;;7.18;;
74634;SDS011;63140;56.306;43.984;2022-12-07T04:54:12;12.57;;;6.43;;
74634;SDS011;63140;56.306;43.984;2022-12-07T04:56:38;16.05;;;6.22;;
74634;SDS011;63140;56.306;43.984;2022-12-07T04:59:05;12.75;;;6.43;;
74634;SDS011;63140;56.306;43.984;2022-12-07T05:01:31;9.63;;;6.07;;
74634;SDS011;63140;56.306;43.984;2022-12-07T05:03:57;9.63;;;5.22;;
74634;SDS011;63140;56.306;43.984;2022-12-07T05:06:24;13.60;;;8.05;;
74634;SDS011;63140;56.306;43.984;2022-12-07T05:08:50;13.98;;;7.30;;
74634;SDS011;63140;56.306;43.984;2022-12-07T05:11:16;10.87;;;6.83;;
74634;SDS011;63140;56.306;43.984;2022-12-07T05:14:01;14.85;;;6.85;;
74634;SDS011;63140;56.306;43.984;2022-12-07T05:16:28;8.55;;;5.85;;
74634;SDS011;63140;56.306;43.984;2022-12-07T05:18:54;12.25;;;6.65;;
74634;SDS011;63140;56.306;43.984;2022-12-07T05:21:20;9.93;;;6.25;;
74634;SDS011;63140;56.306;43.984;2022-12-07T05:23:46;11.67;;;7.17;;
74634;SDS011;63140;56.306;43.984;2022-12-07T05:26:12;10.73;;;6.35;;
74634;SDS011;63140;56.306;43.984;2022-12-07T05:28:38;9.50;;;5.78;;
74634;SDS011;63140;56.306;43.984;2022-12-07T05:31:04;12.40;;;6.77;;
74634;SDS011;63140;56.306;43.984;2022-12-07T05:33:30;12.23;;;6.55;;
74634;SDS011;63140;56.306;43.984;2022-12-07T05:35:55;12.98;;;6.75;;
74634;SDS011;63140;56.306;43.984;2022-12-07T05:38:21;11.17;;;6.50;;
74634;SDS011;63140;56.306;43.984;2022-12-07T05:40:47;9.93;;;6.25;;
74634;SDS011;63140;56.306;43.984;2022-12-07T05:43:13;8.93;;;6.37;;
74634;SDS011;63140;56.306;43.984;2022-12-07T05:45:39;9.10;;;5.80;;
74634;SDS011;63140;56.306;43.984;2022-12-07T05:48:04;12.60;;;7.18;;
74634;SDS011;63140;56.306;43.984;2022-12-07T05:50:31;11.50;;;5.95;;
74634;SDS011;63140;56.306;43.984;2022-12-07T05:52:59;6.23;;;4.37;;
74634;SDS011;63140;56.306;43.984;2022-12-07T05:55:28;11.55;;;6.35;;
74634;SDS011;63140;56.306;43.984;2022-12-07T05:57:54;9.32;;;6.57;;
74634;SDS011;63140;56.306;43.984;2022-12-07T06:00:38;10.55;;;6.55;;
74634;SDS011;63140;56.306;43.984;2022-12-07T06:03:04;11.43;;;6.80;;
74634;SDS011;63140;56.306;43.984;2022-12-07T06:05:30;13.32;;;6.55;;
74634;SDS011;63140;56.306;43.984;2022-12-07T06:07:55;8.50;;;5.73;;
74634;SDS011;63140;56.306;43.984;2022-12-07T06:10:21;10.13;;;6.22;;
74634;SDS011;63140;56.306;43.984;2022-12-07T06:12:47;13.30;;;7.00;;
74634;SDS011;63140;56.306;43.984;2022-12-07T06:15:13;10.90;;;6.40;;
74634;SDS011;63140;56.306;43.984;2022-12-07T06:17:40;11.80;;;6.17;;
74634;SDS011;63140;56.306;43.984;2022-12-07T06:20:06;12.95;;;6.22;;
74634;SDS011;63140;56.306;43.984;2022-12-07T06:22:32;28.00;;;5.82;;
74634;SDS011;63140;56.306;43.984;2022-12-07T06:24:58;11.02;;;6.75;;
74634;SDS011;63140;56.306;43.984;2022-12-07T06:27:24;10.80;;;6.23;;
74634;SDS011;63140;56.306;43.984;2022-12-07T06:29:50;14.00;;;7.50;;
74634;SDS011;63140;56.306;43.984;2022-12-07T06:32:16;12.15;;;7.68;;
74634;SDS011;63140;56.306;43.984;2022-12-07T06:34:41;11.37;;;7.33;;
74634;SDS011;63140;56.306;43.984;2022-12-07T06:37:07;9.70;;;5.53;;
74634;SDS011;63140;56.306;43.984;2022-12-07T06:39:33;9.15;;;6.13;;
74634;SDS011;63140;56.306;43.984;2022-12-07T06:41:59;12.52;;;7.72;;
74634;SDS011;63140;56.306;43.984;2022-12-07T06:44:25;12.10;;;6.70;;
74634;SDS011;63140;56.306;43.984;2022-12-07T06:46:51;15.80;;;6.07;;
74634;SDS011;63140;56.306;43.984;2022-12-07T06:49:17;12.88;;;7.88;;
74634;SDS011;63140;56.306;43.984;2022-12-07T06:51:43;13.32;;;7.80;;
74634;SDS011;63140;56.306;43.984;2022-12-07T06:54:11;11.63;;;6.03;;
74634;SDS011;63140;56.306;43.984;2022-12-07T06:56:39;13.93;;;6.65;;
74634;SDS011;63140;56.306;43.984;2022-12-07T06:59:05;6.15;;;4.63;;
74634;SDS011;63140;56.306;43.984;2022-12-07T07:01:32;12.07;;;5.65;;
74634;SDS011;63140;56.306;43.984;2022-12-07T07:03:58;12.55;;;6.97;;
74634;SDS011;63140;56.306;43.984;2022-12-07T07:06:24;14.97;;;7.50;;
74634;SDS011;63140;56.306;43.984;2022-12-07T07:08:51;12.38;;;6.63;;
74634;SDS011;63140;56.306;43.984;2022-12-07T07:11:17;8.75;;;5.47;;
74634;SDS011;63140;56.306;43.984;2022-12-07T07:13:44;12.23;;;6.03;;
74634;SDS011;63140;56.306;43.984;2022-12-07T07:16:10;16.67;;;7.80;;
74634;SDS011;63140;56.306;43.984;2022-12-07T07:18:36;8.40;;;5.90;;
74634;SDS011;63140;56.306;43.984;2022-12-07T07:21:02;15.57;;;7.65;;
74634;SDS011;63140;56.306;43.984;2022-12-07T07:23:29;12.50;;;6.60;;
74634;SDS011;63140;56.306;43.984;2022-12-07T07:25:55;16.83;;;7.78;;
74634;SDS011;63140;56.306;43.984;2022-12-07T07:28:21;10.10;;;5.47;;
74634;SDS011;63140;56.306;43.984;2022-12-07T07:30:47;17.85;;;7.45;;
74634;SDS011;63140;56.306;43.984;2022-12-07T07:33:13;12.48;;;6.75;;
74634;SDS011;63140;56.306;43.984;2022-12-07T07:35:40;14.80;;;7.38;;
74634;SDS011;63140;56.306;43.984;2022-12-07T07:38:07;8.57;;;6.55;;
74634;SDS011;63140;56.306;43.984;2022-12-07T07:40:33;15.30;;;7.30;;
74634;SDS011;63140;56.306;43.984;2022-12-07T07:42:59;14.30;;;7.80;;
74634;SDS011;63140;56.306;43.984;2022-12-07T07:45:29;14.98;;;7.50;;
74634;SDS011;63140;56.306;43.984;2022-12-07T07:48:00;12.13;;;6.72;;
74634;SDS011;63140;56.306;43.984;2022-12-07T07:50:31;15.55;;;9.35;;
74634;SDS011;63140;56.306;43.984;2022-12-07T07:53:02;14.57;;;7.00;;
74634;SDS011;63140;56.306;43.984;2022-12-07T07:55:30;15.55;;;7.53;;
74634;SDS011;63140;56.306;43.984;2022-12-07T07:58:06;15.25;;;8.20;;
74634;SDS011;63140;56.306;43.984;2022-12-07T08:00:32;15.00;;;7.75;;
74634;SDS011;63140;56.306;43.984;2022-12-07T08:02:57;17.57;;;7.63;;
74634;SDS011;63140;56.306;43.984;2022-12-07T08:05:24;19.70;;;8.52;;
74634;SDS011;63140;56.306;43.984;2022-12-07T08:07:50;14.00;;;8.13;;
74634;SDS011;63140;56.306;43.984;2022-12-07T08:10:16;13.05;;;7.75;;
74634;SDS011;63140;56.306;43.984;2022-12-07T08:12:42;14.50;;;7.87;;
74634;SDS011;63140;56.306;43.984;2022-12-07T08:15:28;15.55;;;8.23;;
74634;SDS011;63140;56.306;43.984;2022-12-07T08:17:55;18.67;;;9.55;;
74634;SDS011;63140;56.306;43.984;2022-12-07T08:20:21;11.80;;;6.97;;
74634;SDS011;63140;56.306;43.984;2022-12-07T08:22:47;18.87;;;9.13;;
74634;SDS011;63140;56.306;43.984;2022-12-07T08:25:13;16.80;;;7.97;;
74634;SDS011;63140;56.306;43.984;2022-12-07T08:27:39;16.08;;;7.85;;
74634;SDS011;63140;56.306;43.984;2022-12-07T08:30:05;15.25;;;7.22;;
74634;SDS011;63140;56.306;43.984;2022-12-07T08:32:31;15.80;;;7.63;;
74634;SDS011;63140;56.306;43.984;2022-12-07T08:34:57;14.20;;;8.32;;
74634;SDS011;63140;56.306;43.984;2022-12-07T08:37:23;13.45;;;7.15;;
74634;SDS011;63140;56.306;43.984;2022-12-07T08:39:49;11.80;;;5.90;;
74634;SDS011;63140;56.306;43.984;2022-12-07T08:42:15;12.13;;;6.78;;
74634;SDS011;63140;56.306;43.984;2022-12-07T08:44:40;13.23;;;7.13;;
74634;SDS011;63140;56.306;43.984;2022-12-07T08:47:06;12.67;;;7.00;;
74634;SDS011;63140;56.306;43.984;2022-12-07T08:49:41;14.80;;;7.88;;
74634;SDS011;63140;56.306;43.984;2022-12-07T08:52:11;11.65;;;6.65;;
74634;SDS011;63140;56.306;43.984;2022-12-07T08:54:37;13.88;;;6.78;;
74634;SDS011;63140;56.306;43.984;2022-12-07T08:57:05;8.13;;;5.23;;
74634;SDS011;63140;56.306;43.984;2022-12-07T08:59:32;12.70;;;6.68;;
74634;SDS011;63140;56.306;43.984;2022-12-07T09:02:01;13.27;;;6.90;;
74634;SDS011;63140;56.306;43.984;2022-12-07T09:04:27;13.52;;;6.88;;
74634;SDS011;63140;56.306;43.984;2022-12-07T09:06:54;12.10;;;6.80;;
74634;SDS011;63140;56.306;43.984;2022-12-07T09:09:20;18.83;;;6.80;;
74634;SDS011;63140;56.306;43.984;2022-12-07T09:11:46;14.32;;;7.00;;
74634;SDS011;63140;56.306;43.984;2022-12-07T09:14:13;12.65;;;6.38;;
74634;SDS011;63140;56.306;43.984;2022-12-07T09:16:39;15.48;;;7.55;;
74634;SDS011;63140;56.306;43.984;2022-12-07T09:19:05;13.70;;;7.17;;
74634;SDS011;63140;56.306;43.984;2022-12-07T09:21:31;14.25;;;6.57;;
74634;SDS011;63140;56.306;43.984;2022-12-07T09:23:57;15.23;;;7.13;;
74634;SDS011;63140;56.306;43.984;2022-12-07T09:26:23;12.10;;;6.90;;
74634;SDS011;63140;56.306;43.984;2022-12-07T09:28:48;11.70;;;6.60;;
74634;SDS011;63140;56.306;43.984;2022-12-07T09:31:14;14.93;;;7.80;;
74634;SDS011;63140;56.306;43.984;2022-12-07T09:33:40;15.63;;;8.27;;
74634;SDS011;63140;56.306;43.984;2022-12-07T09:36:06;14.77;;;6.68;;
74634;SDS011;63140;56.306;43.984;2022-12-07T09:38:34;12.60;;;8.05;;
74634;SDS011;63140;56.306;43.984;2022-12-07T09:41:04;13.00;;;6.68;;
74634;SDS011;63140;56.306;43.984;2022-12-07T09:43:33;11.73;;;6.50;;
74634;SDS011;63140;56.306;43.984;2022-12-07T09:46:01;13.70;;;6.43;;
74634;SDS011;63140;56.306;43.984;2022-12-07T09:48:31;19.60;;;7.40;;
74634;SDS011;63140;56.306;43.984;2022-12-07T09:51:02;15.30;;;7.82;;
74634;SDS011;63140;56.306;43.984;2022-12-07T09:53:38;16.38;;;6.30;;
74634;SDS011;63140;56.306;43.984;2022-12-07T09:56:05;14.23;;;7.40;;
74634;SDS011;63140;56.306;43.984;2022-12-07T09:58:32;19.30;;;8.50;;
74634;SDS011;63140;56.306;43.984;2022-12-07T10:03:37;12.40;;;6.85;;
74634;SDS011;63140;56.306;43.984;2022-12-07T10:06:07;23.17;;;7.97;;
74634;SDS011;63140;56.306;43.984;2022-12-07T10:08:36;17.15;;;7.78;;
74634;SDS011;63140;56.306;43.984;2022-12-07T10:11:02;12.43;;;6.10;;
74634;SDS011;63140;56.306;43.984;2022-12-07T10:13:37;16.05;;;8.85;;
74634;SDS011;63140;56.306;43.984;2022-12-07T10:18:53;15.55;;;7.88;;
74634;SDS011;63140;56.306;43.984;2022-12-07T10:21:21;22.77;;;8.60;;
74634;SDS011;63140;56.306;43.984;2022-12-07T10:29:20;15.23;;;7.22;;
74634;SDS011;63140;56.306;43.984;2022-12-07T10:31:46;18.15;;;8.38;;
74634;SDS011;63140;56.306;43.984;2022-12-07T10:37:07;23.67;;;8.32;;
74634;SDS011;63140;56.306;43.984;2022-12-07T10:39:51;20.88;;;7.22;;
74634;SDS011;63140;56.306;43.984;2022-12-07T10:42:20;26.27;;;6.78;;
74634;SDS011;63140;56.306;43.984;2022-12-07T10:44:48;10.13;;;5.25;;
74634;SDS011;63140;56.306;43.984;2022-12-07T10:50:29;18.88;;;5.72;;
74634;SDS011;63140;56.306;43.984;2022-12-07T10:53:17;13.75;;;5.95;;
74634;SDS011;63140;56.306;43.984;2022-12-07T10:55:53;10.70;;;5.80;;
74634;SDS011;63140;56.306;43.984;2022-12-07T11:01:17;15.13;;;7.73;;
74634;SDS011;63140;56.306;43.984;2022-12-07T11:12:12;10.55;;;6.10;;
74634;SDS011;63140;56.306;43.984;2022-12-07T11:20:15;20.35;;;7.22;;
74634;SDS011;63140;56.306;43.984;2022-12-07T11:30:27;15.02;;;7.22;;
74634;SDS011;63140;56.306;43.984;2022-12-07T11:33:27;18.45;;;7.20;;
74634;SDS011;63140;56.306;43.984;2022-12-07T11:36:14;14.93;;;7.40;;
74634;SDS011;63140;56.306;43.984;2022-12-07T11:38:56;19.20;;;7.40;;
74634;SDS011;63140;56.306;43.984;2022-12-07T11:41:31;15.48;;;8.18;;
74634;SDS011;63140;56.306;43.984;2022-12-07T11:47:01;18.33;;;7.35;;
74634;SDS011;63140;56.306;43.984;2022-12-07T11:55:13;17.42;;;7.47;;
74634;SDS011;63140;56.306;43.984;2022-12-07T11:57:46;15.57;;;7.95;;
74634;SDS011;63140;56.306;43.984;2022-12-07T12:00:18;13.50;;;7.72;;
74634;SDS011;63140;56.306;43.984;2022-12-07T12:02:58;18.40;;;8.10;;
74634;SDS011;63140;56.306;43.984;2022-12-07T12:05:30;19.73;;;8.57;;
74634;SDS011;63140;56.306;43.984;2022-12-07T12:08:06;17.00;;;8.65;;
74634;SDS011;63140;56.306;43.984;2022-12-07T12:21:55;15.35;;;7.57;;
74634;SDS011;63140;56.306;43.984;2022-12-07T12:24:28;16.80;;;7.93;;
74634;SDS011;63140;56.306;43.984;2022-12-07T12:27:05;18.17;;;8.70;;
74634;SDS011;63140;56.306;43.984;2022-12-07T12:29:36;16.60;;;8.02;;
74634;SDS011;63140;56.306;43.984;2022-12-07T12:32:05;16.53;;;9.10;;
74634;SDS011;63140;56.306;43.984;2022-12-07T12:42:49;14.98;;;8.13;;
74634;SDS011;63140;56.306;43.984;2022-12-07T12:45:23;17.53;;;8.27;;
74634;SDS011;63140;56.306;43.984;2022-12-07T12:48:00;17.17;;;8.70;;
74634;SDS011;63140;56.306;43.984;2022-12-07T12:50:31;23.08;;;8.68;;
74634;SDS011;63140;56.306;43.984;2022-12-07T12:53:00;19.55;;;8.15;;
74634;SDS011;63140;56.306;43.984;2022-12-07T12:55:43;16.30;;;8.98;;
74634;SDS011;63140;56.306;43.984;2022-12-07T13:00:45;12.60;;;8.00;;
74634;SDS011;63140;56.306;43.984;2022-12-07T13:03:29;23.40;;;8.55;;
74634;SDS011;63140;56.306;43.984;2022-12-07T13:08:52;14.63;;;7.70;;
74634;SDS011;63140;56.306;43.984;2022-12-07T13:11:34;19.00;;;9.30;;
74634;SDS011;63140;56.306;43.984;2022-12-07T13:17:12;15.35;;;8.93;;
74634;SDS011;63140;56.306;43.984;2022-12-07T13:27:46;18.10;;;9.40;;
74634;SDS011;63140;56.306;43.984;2022-12-07T13:30:21;16.80;;;8.80;;
74634;SDS011;63140;56.306;43.984;2022-12-07T13:32:51;18.97;;;9.77;;
74634;SDS011;63140;56.306;43.984;2022-12-07T13:35:35;18.27;;;9.23;;
74634;SDS011;63140;56.306;43.984;2022-12-07T13:38:04;17.27;;;8.27;;
74634;SDS011;63140;56.306;43.984;2022-12-07T13:43:30;17.42;;;9.00;;
74634;SDS011;63140;56.306;43.984;2022-12-07T13:45:57;21.20;;;8.43;;
74634;SDS011;63140;56.306;43.984;2022-12-07T13:48:31;19.17;;;9.32;;
74634;SDS011;63140;56.306;43.984;2022-12-07T13:51:02;13.65;;;8.63;;
74634;SDS011;63140;56.306;43.984;2022-12-07T13:53:29;20.25;;;9.55;;
74634;SDS011;63140;56.306;43.984;2022-12-07T13:55:59;19.45;;;9.93;;
74634;SDS011;63140;56.306;43.984;2022-12-07T13:58:30;13.87;;;7.43;;
74634;SDS011;63140;56.306;43.984;2022-12-07T14:00:57;19.08;;;8.55;;
74634;SDS011;63140;56.306;43.984;2022-12-07T14:03:25;14.25;;;8.18;;
74634;SDS011;63140;56.306;43.984;2022-12-07T14:06:04;14.75;;;8.45;;
74634;SDS011;63140;56.306;43.984;2022-12-07T14:08:32;20.58;;;9.07;;
74634;SDS011;63140;56.306;43.984;2022-12-07T14:10:58;18.17;;;8.77;;
74634;SDS011;63140;56.306;43.984;2022-12-07T14:13:35;13.88;;;8.27;;
74634;SDS011;63140;56.306;43.984;2022-12-07T14:16:19;15.55;;;7.97;;
74634;SDS011;63140;56.306;43.984;2022-12-07T14:18:53;16.65;;;8.75;;
74634;SDS011;63140;56.306;43.984;2022-12-07T14:21:21;14.30;;;8.27;;
74634;SDS011;63140;56.306;43.984;2022-12-07T14:26:37;18.58;;;9.07;;
74634;SDS011;63140;56.306;43.984;2022-12-07T14:31:56;15.15;;;9.13;;
74634;SDS011;63140;56.306;43.984;2022-12-07T14:34:24;16.17;;;8.13;;
74634;SDS011;63140;56.306;43.984;2022-12-07T14:36:50;21.73;;;9.57;;
74634;SDS011;63140;56.306;43.984;2022-12-07T14:39:16;18.83;;;9.90;;
74634;SDS011;63140;56.306;43.984;2022-12-07T14:41:42;19.92;;;8.77;;
74634;SDS011;63140;56.306;43.984;2022-12-07T14:44:21;19.15;;;8.65;;
74634;SDS011;63140;56.306;43.984;2022-12-07T14:46:48;20.13;;;10.33;;
74634;SDS011;63140;56.306;43.984;2022-12-07T14:49:15;20.77;;;9.43;;
74634;SDS011;63140;56.306;43.984;2022-12-07T14:51:42;20.90;;;9.90;;
74634;SDS011;63140;56.306;43.984;2022-12-07T14:54:14;21.48;;;10.77;;
74634;SDS011;63140;56.306;43.984;2022-12-07T14:56:43;18.33;;;8.75;;
74634;SDS011;63140;56.306;43.984;2022-12-07T14:59:11;15.30;;;8.27;;
74634;SDS011;63140;56.306;43.984;2022-12-07T15:01:37;20.65;;;8.57;;
74634;SDS011;63140;56.306;43.984;2022-12-07T15:04:04;20.40;;;11.02;;
74634;SDS011;63140;56.306;43.984;2022-12-07T15:06:30;18.30;;;8.95;;
74634;SDS011;63140;56.306;43.984;2022-12-07T15:08:55;14.03;;;7.73;;
74634;SDS011;63140;56.306;43.984;2022-12-07T15:11:21;19.80;;;9.20;;
74634;SDS011;63140;56.306;43.984;2022-12-07T15:13:47;18.30;;;9.18;;
74634;SDS011;63140;56.306;43.984;2022-12-07T15:16:31;17.57;;;8.77;;
74634;SDS011;63140;56.306;43.984;2022-12-07T15:18:58;20.05;;;8.38;;
74634;SDS011;63140;56.306;43.984;2022-12-07T15:21:23;18.17;;;9.57;;
74634;SDS011;63140;56.306;43.984;2022-12-07T15:23:49;20.48;;;10.00;;
74634;SDS011;63140;56.306;43.984;2022-12-07T15:26:15;20.73;;;9.53;;
74634;SDS011;63140;56.306;43.984;2022-12-07T15:28:41;22.95;;;8.95;;
74634;SDS011;63140;56.306;43.984;2022-12-07T15:31:14;14.50;;;7.93;;
74634;SDS011;63140;56.306;43.984;2022-12-07T15:33:41;17.08;;;8.88;;
74634;SDS011;63140;56.306;43.984;2022-12-07T15:36:07;20.17;;;9.67;;
74634;SDS011;63140;56.306;43.984;2022-12-07T15:38:34;16.67;;;8.77;;
74634;SDS011;63140;56.306;43.984;2022-12-07T15:41:00;18.80;;;8.93;;
74634;SDS011;63140;56.306;43.984;2022-12-07T15:43:26;20.13;;;8.13;;
74634;SDS011;63140;56.306;43.984;2022-12-07T15:46:11;16.87;;;7.80;;
74634;SDS011;63140;56.306;43.984;2022-12-07T15:48:37;13.45;;;8.00;;
74634;SDS011;63140;56.306;43.984;2022-12-07T15:51:04;17.33;;;8.50;;
74634;SDS011;63140;56.306;43.984;2022-12-07T15:53:32;11.43;;;7.10;;
74634;SDS011;63140;56.306;43.984;2022-12-07T15:55:58;16.87;;;7.87;;
74634;SDS011;63140;56.306;43.984;2022-12-07T15:58:24;12.77;;;7.30;;
74634;SDS011;63140;56.306;43.984;2022-12-07T16:00:50;15.00;;;7.30;;
74634;SDS011;63140;56.306;43.984;2022-12-07T16:03:16;16.48;;;7.32;;
74634;SDS011;63140;56.306;43.984;2022-12-07T16:05:48;18.00;;;8.27;;
74634;SDS011;63140;56.306;43.984;2022-12-07T16:08:16;15.98;;;8.90;;
74634;SDS011;63140;56.306;43.984;2022-12-07T16:10:42;17.08;;;8.60;;
74634;SDS011;63140;56.306;43.984;2022-12-07T16:13:11;18.70;;;8.85;;
74634;SDS011;63140;56.306;43.984;2022-12-07T16:15:39;16.20;;;8.83;;
74634;SDS011;63140;56.306;43.984;2022-12-07T16:18:05;16.50;;;8.02;;
74634;SDS011;63140;56.306;43.984;2022-12-07T16:20:31;16.25;;;8.57;;
74634;SDS011;63140;56.306;43.984;2022-12-07T16:22:58;18.05;;;9.80;;
74634;SDS011;63140;56.306;43.984;2022-12-07T16:25:24;20.08;;;10.13;;
74634;SDS011;63140;56.306;43.984;2022-12-07T16:27:53;17.27;;;7.07;;
74634;SDS011;63140;56.306;43.984;2022-12-07T16:30:19;15.13;;;8.40;;
74634;SDS011;63140;56.306;43.984;2022-12-07T16:32:45;18.92;;;8.85;;
74634;SDS011;63140;56.306;43.984;2022-12-07T16:35:11;19.55;;;9.90;;
74634;SDS011;63140;56.306;43.984;2022-12-07T16:37:38;20.30;;;10.10;;
74634;SDS011;63140;56.306;43.984;2022-12-07T16:40:04;17.45;;;9.52;;
74634;SDS011;63140;56.306;43.984;2022-12-07T16:42:31;14.85;;;8.10;;